H9774 VNKT-ZULS
Flight info
| Callsign | H9774 |
|---|---|
| Flight time | 0h 58m |
| Altitude | 37000 |
| Route | IGRIS1D KIMTI B345 NONIM/K0820S1130 B345 RKZ DCT IKUBI IKU28A |
| Aircraft | A319/M-SDE3FGHIRWY/LB1 |
Departure
| Time | 2026-04-26 13:48 |
|---|---|
| Airport | Tribhuvan International Airport (VNKT) |
Arrival
| Time | 2026-04-26 14:46 |
|---|---|
| Airport | Lhasa Gonggar International Airport (ZULS) |
| Time | Latitude | Longitude | Altitude | Speed | Heading |
|---|---|---|---|---|---|
| 2026-04-26 13:31 | 27.70107 | 85.35889 | 4441 ft | 0 kts | 291° |
| 2026-04-26 13:38 | 27.70106 | 85.35893 | 4441 ft | 2 kts | 291° |
| 2026-04-26 13:38 | 27.70101 | 85.35909 | 4441 ft | 2 kts | 291° |
| 2026-04-26 13:39 | 27.70095 | 85.35925 | 4441 ft | 2 kts | 291° |
| 2026-04-26 13:39 | 27.70091 | 85.35936 | 4441 ft | 1 kts | 291° |
| 2026-04-26 13:39 | 27.70087 | 85.35953 | 4440 ft | 2 kts | 271° |
| 2026-04-26 13:39 | 27.70089 | 85.35970 | 4440 ft | 2 kts | 254° |
| 2026-04-26 13:40 | 27.70095 | 85.35986 | 4441 ft | 2 kts | 237° |
| 2026-04-26 13:40 | 27.70105 | 85.35998 | 4441 ft | 2 kts | 219° |
| 2026-04-26 13:40 | 27.70116 | 85.36007 | 4441 ft | 0 kts | 204° |
| 2026-04-26 13:40 | 27.70123 | 85.36010 | 4441 ft | 0 kts | 200° |
| 2026-04-26 13:41 | 27.70122 | 85.36010 | 4441 ft | 0 kts | 200° |
| 2026-04-26 13:42 | 27.70114 | 85.36006 | 4441 ft | 2 kts | 201° |
| 2026-04-26 13:42 | 27.70089 | 85.35995 | 4440 ft | 5 kts | 201° |
| 2026-04-26 13:42 | 27.70044 | 85.35976 | 4439 ft | 8 kts | 201° |
| 2026-04-26 13:42 | 27.69980 | 85.35946 | 4438 ft | 11 kts | 203° |
| 2026-04-26 13:43 | 27.69893 | 85.35907 | 4434 ft | 15 kts | 200° |
| 2026-04-26 13:43 | 27.69784 | 85.35856 | 4430 ft | 18 kts | 202° |
| 2026-04-26 13:43 | 27.69655 | 85.35799 | 4426 ft | 20 kts | 202° |
| 2026-04-26 13:43 | 27.69500 | 85.35728 | 4413 ft | 26 kts | 201° |
| 2026-04-26 13:44 | 27.69309 | 85.35640 | 4398 ft | 22 kts | 200° |
| 2026-04-26 13:44 | 27.69175 | 85.35579 | 4389 ft | 13 kts | 201° |
| 2026-04-26 13:44 | 27.69127 | 85.35559 | 4385 ft | 0 kts | 197° |
| 2026-04-26 13:44 | 27.69120 | 85.35557 | 4385 ft | 3 kts | 197° |
| 2026-04-26 13:45 | 27.69084 | 85.35555 | 4384 ft | 4 kts | 116° |
| 2026-04-26 13:45 | 27.69068 | 85.35590 | 4385 ft | 4 kts | 128° |
| 2026-04-26 13:45 | 27.69045 | 85.35619 | 4386 ft | 4 kts | 141° |
| 2026-04-26 13:45 | 27.69009 | 85.35623 | 4385 ft | 6 kts | 185° |
| 2026-04-26 13:46 | 27.68942 | 85.35598 | 4382 ft | 11 kts | 201° |
| 2026-04-26 13:46 | 27.68843 | 85.35539 | 4378 ft | 15 kts | 211° |
| 2026-04-26 13:46 | 27.68726 | 85.35467 | 4372 ft | 19 kts | 202° |
| 2026-04-26 13:46 | 27.68679 | 85.35475 | 4371 ft | 3 kts | 349° |
| 2026-04-26 13:47 | 27.68692 | 85.35474 | 4371 ft | 0 kts | 38° |
| 2026-04-26 13:47 | 27.68750 | 85.35509 | 4374 ft | 37 kts | 11° |
| 2026-04-26 13:47 | 27.69221 | 85.35714 | 4398 ft | 105 kts | 24° |
| 2026-04-26 13:47 | 27.70085 | 85.36104 | 4456 ft | 157 kts | 21° |
| 2026-04-26 13:48 | 27.71099 | 85.36552 | 4995 ft | 157 kts | 21° |
| 2026-04-26 13:48 | 27.72129 | 85.37028 | 5590 ft | 160 kts | 27° |
| 2026-04-26 13:48 | 27.73047 | 85.37762 | 6208 ft | 162 kts | 45° |
| 2026-04-26 13:48 | 27.73733 | 85.38830 | 6628 ft | 174 kts | 64° |
| 2026-04-26 13:49 | 27.74080 | 85.40273 | 7033 ft | 190 kts | 84° |
| 2026-04-26 13:49 | 27.74107 | 85.41849 | 7427 ft | 207 kts | 90° |
| 2026-04-26 13:49 | 27.73979 | 85.43547 | 7849 ft | 222 kts | 102° |
| 2026-04-26 13:49 | 27.73323 | 85.45180 | 8399 ft | 231 kts | 125° |
| 2026-04-26 13:50 | 27.72059 | 85.46523 | 9104 ft | 235 kts | 149° |
| 2026-04-26 13:50 | 27.70316 | 85.47431 | 9745 ft | 246 kts | 158° |
| 2026-04-26 13:50 | 27.68479 | 85.48244 | 10202 ft | 266 kts | 159° |
| 2026-04-26 13:50 | 27.66500 | 85.49397 | 10695 ft | 288 kts | 146° |
| 2026-04-26 13:51 | 27.64847 | 85.50964 | 11182 ft | 306 kts | 133° |
| 2026-04-26 13:51 | 27.63498 | 85.52981 | 11634 ft | 324 kts | 120° |
| 2026-04-26 13:51 | 27.62523 | 85.55504 | 12178 ft | 339 kts | 106° |
| 2026-04-26 13:51 | 27.61832 | 85.58163 | 12876 ft | 345 kts | 103° |
| 2026-04-26 13:52 | 27.61191 | 85.60779 | 13655 ft | 348 kts | 104° |
| 2026-04-26 13:52 | 27.60525 | 85.63412 | 14425 ft | 351 kts | 104° |
| 2026-04-26 13:52 | 27.59831 | 85.66073 | 15164 ft | 355 kts | 104° |
| 2026-04-26 13:52 | 27.59091 | 85.68758 | 15864 ft | 359 kts | 108° |
| 2026-04-26 13:53 | 27.58122 | 85.71352 | 16589 ft | 362 kts | 113° |
| 2026-04-26 13:53 | 27.57000 | 85.73938 | 17204 ft | 368 kts | 114° |
| 2026-04-26 13:53 | 27.55841 | 85.76532 | 17883 ft | 370 kts | 115° |
| 2026-04-26 13:53 | 27.54616 | 85.79279 | 18674 ft | 371 kts | 114° |
| 2026-04-26 13:54 | 27.53419 | 85.81982 | 19318 ft | 375 kts | 114° |
| 2026-04-26 13:54 | 27.52225 | 85.84924 | 19927 ft | 381 kts | 108° |
| 2026-04-26 13:54 | 27.51433 | 85.87809 | 20520 ft | 382 kts | 100° |
| 2026-04-26 13:55 | 27.50836 | 85.93954 | 21851 ft | 383 kts | 89° |
| 2026-04-26 13:55 | 27.50774 | 85.96003 | 22261 ft | 385 kts | 89° |
| 2026-04-26 13:55 | 27.50539 | 86.03686 | 23656 ft | 397 kts | 90° |
| 2026-04-26 13:56 | 27.50418 | 86.07095 | 24241 ft | 402 kts | 90° |
| 2026-04-26 13:56 | 27.50292 | 86.10528 | 24803 ft | 407 kts | 90° |
| 2026-04-26 13:56 | 27.50153 | 86.14164 | 25397 ft | 412 kts | 90° |
| 2026-04-26 13:56 | 27.50009 | 86.17865 | 26038 ft | 416 kts | 90° |
| 2026-04-26 13:57 | 27.49865 | 86.21605 | 26620 ft | 420 kts | 90° |
| 2026-04-26 13:57 | 27.49660 | 86.25150 | 27142 ft | 425 kts | 94° |
| 2026-04-26 13:57 | 27.49256 | 86.28696 | 27672 ft | 430 kts | 98° |
| 2026-04-26 13:57 | 27.48617 | 86.32402 | 28207 ft | 434 kts | 100° |
| 2026-04-26 13:58 | 27.47914 | 86.36037 | 28698 ft | 438 kts | 101° |
| 2026-04-26 13:58 | 27.47179 | 86.39798 | 29202 ft | 442 kts | 101° |
| 2026-04-26 13:58 | 27.46477 | 86.43413 | 29695 ft | 444 kts | 101° |
| 2026-04-26 13:58 | 27.45809 | 86.46863 | 30155 ft | 447 kts | 101° |
| 2026-04-26 13:59 | 27.45147 | 86.50288 | 30613 ft | 449 kts | 101° |
| 2026-04-26 13:59 | 27.44478 | 86.53748 | 31056 ft | 451 kts | 101° |
| 2026-04-26 13:59 | 27.43791 | 86.57304 | 31433 ft | 455 kts | 101° |
| 2026-04-26 14:00 | 27.41729 | 86.67973 | 32847 ft | 456 kts | 101° |
| 2026-04-26 14:00 | 27.41055 | 86.71451 | 33361 ft | 455 kts | 101° |
| 2026-04-26 14:00 | 27.40607 | 86.73767 | 33693 ft | 455 kts | 102° |
| 2026-04-26 14:01 | 27.39701 | 86.78428 | 34327 ft | 454 kts | 102° |
| 2026-04-26 14:01 | 27.39028 | 86.81887 | 34737 ft | 454 kts | 102° |
| 2026-04-26 14:01 | 27.38335 | 86.85432 | 35201 ft | 453 kts | 102° |
| 2026-04-26 14:01 | 27.37638 | 86.89011 | 35618 ft | 453 kts | 102° |
| 2026-04-26 14:02 | 27.36954 | 86.92497 | 35960 ft | 455 kts | 102° |
| 2026-04-26 14:02 | 27.36237 | 86.96151 | 36280 ft | 456 kts | 102° |
| 2026-04-26 14:02 | 27.35495 | 86.99927 | 36567 ft | 459 kts | 102° |
| 2026-04-26 14:02 | 27.34790 | 87.03503 | 36853 ft | 460 kts | 102° |
| 2026-04-26 14:03 | 27.34111 | 87.07104 | 37097 ft | 462 kts | 98° |
| 2026-04-26 14:03 | 27.33925 | 87.10696 | 37301 ft | 462 kts | 85° |
| 2026-04-26 14:03 | 27.34446 | 87.14259 | 37327 ft | 459 kts | 70° |
| 2026-04-26 14:03 | 27.35648 | 87.17540 | 37321 ft | 454 kts | 57° |
| 2026-04-26 14:04 | 27.37463 | 87.20446 | 37375 ft | 448 kts | 44° |
| 2026-04-26 14:04 | 27.39721 | 87.22793 | 37385 ft | 442 kts | 31° |
| 2026-04-26 14:04 | 27.42351 | 87.24551 | 37399 ft | 437 kts | 19° |
| 2026-04-26 14:05 | 27.48060 | 87.27155 | 37471 ft | 439 kts | 17° |
| 2026-04-26 14:05 | 27.54038 | 87.29821 | 37646 ft | 441 kts | 17° |
| 2026-04-26 14:06 | 27.60010 | 87.32546 | 37696 ft | 440 kts | 17° |
| 2026-04-26 14:06 | 27.66007 | 87.35310 | 37830 ft | 439 kts | 17° |
| 2026-04-26 14:07 | 27.71763 | 87.37967 | 37852 ft | 440 kts | 17° |
| 2026-04-26 14:07 | 27.77471 | 87.40707 | 37942 ft | 443 kts | 21° |
| 2026-04-26 14:08 | 27.82859 | 87.44212 | 37983 ft | 448 kts | 30° |
| 2026-04-26 14:08 | 27.87798 | 87.48637 | 38005 ft | 452 kts | 39° |
| 2026-04-26 14:09 | 27.92268 | 87.53784 | 38033 ft | 453 kts | 43° |
| 2026-04-26 14:09 | 27.96701 | 87.59094 | 38087 ft | 453 kts | 42° |
| 2026-04-26 14:10 | 28.01112 | 87.64347 | 38068 ft | 452 kts | 42° |
| 2026-04-26 14:10 | 28.05505 | 87.69594 | 38056 ft | 452 kts | 43° |
| 2026-04-26 14:11 | 28.12195 | 87.77569 | 38030 ft | 453 kts | 43° |
| 2026-04-26 14:11 | 28.16656 | 87.82858 | 38011 ft | 453 kts | 43° |
| 2026-04-26 14:12 | 28.21170 | 87.88237 | 38023 ft | 452 kts | 43° |
| 2026-04-26 14:12 | 28.25707 | 87.93655 | 38016 ft | 451 kts | 43° |
| 2026-04-26 14:13 | 28.32697 | 88.02024 | 38008 ft | 451 kts | 43° |
| 2026-04-26 14:14 | 28.37280 | 88.07522 | 37987 ft | 450 kts | 43° |
| 2026-04-26 14:14 | 28.41975 | 88.13148 | 37979 ft | 451 kts | 43° |
| 2026-04-26 14:15 | 28.46736 | 88.18867 | 37930 ft | 450 kts | 43° |
| 2026-04-26 14:15 | 28.51487 | 88.24589 | 37923 ft | 449 kts | 43° |
| 2026-04-26 14:16 | 28.56183 | 88.30248 | 37921 ft | 449 kts | 43° |
| 2026-04-26 14:16 | 28.60896 | 88.35939 | 37885 ft | 449 kts | 43° |
| 2026-04-26 14:16 | 28.63212 | 88.38739 | 37618 ft | 449 kts | 44° |
| 2026-04-26 14:17 | 28.65492 | 88.41496 | 37329 ft | 445 kts | 44° |
| 2026-04-26 14:17 | 28.67749 | 88.44228 | 37027 ft | 441 kts | 44° |
| 2026-04-26 14:17 | 28.70012 | 88.46972 | 36726 ft | 437 kts | 44° |
| 2026-04-26 14:17 | 28.72251 | 88.49686 | 36419 ft | 435 kts | 44° |
| 2026-04-26 14:18 | 28.74423 | 88.52322 | 36129 ft | 435 kts | 44° |
| 2026-04-26 14:18 | 28.76596 | 88.54958 | 35833 ft | 435 kts | 44° |
| 2026-04-26 14:18 | 28.78718 | 88.57536 | 35552 ft | 434 kts | 44° |
| 2026-04-26 14:18 | 28.80828 | 88.60097 | 35258 ft | 434 kts | 45° |
| 2026-04-26 14:19 | 28.82960 | 88.62690 | 34971 ft | 434 kts | 45° |
| 2026-04-26 14:19 | 28.85131 | 88.65333 | 34679 ft | 434 kts | 45° |
| 2026-04-26 14:19 | 28.87235 | 88.67907 | 34394 ft | 434 kts | 46° |
| 2026-04-26 14:19 | 28.89383 | 88.70540 | 34106 ft | 433 kts | 46° |
| 2026-04-26 14:20 | 28.91558 | 88.73206 | 33803 ft | 433 kts | 46° |
| 2026-04-26 14:20 | 28.93730 | 88.75861 | 33515 ft | 432 kts | 46° |
| 2026-04-26 14:20 | 28.95908 | 88.78525 | 33222 ft | 433 kts | 46° |
| 2026-04-26 14:20 | 28.98075 | 88.81174 | 32938 ft | 433 kts | 46° |
| 2026-04-26 14:21 | 29.00279 | 88.83869 | 32657 ft | 433 kts | 46° |
| 2026-04-26 14:21 | 29.02386 | 88.86449 | 32384 ft | 434 kts | 46° |
| 2026-04-26 14:21 | 29.04556 | 88.89108 | 32111 ft | 436 kts | 46° |
| 2026-04-26 14:21 | 29.06708 | 88.91744 | 31833 ft | 435 kts | 46° |
| 2026-04-26 14:22 | 29.08890 | 88.94421 | 31561 ft | 433 kts | 46° |
| 2026-04-26 14:22 | 29.11019 | 88.97030 | 31294 ft | 432 kts | 46° |
| 2026-04-26 14:22 | 29.13187 | 88.99673 | 31008 ft | 430 kts | 46° |
| 2026-04-26 14:22 | 29.15360 | 89.02328 | 30734 ft | 428 kts | 46° |
| 2026-04-26 14:23 | 29.17501 | 89.04951 | 30460 ft | 427 kts | 46° |
| 2026-04-26 14:23 | 29.19579 | 89.07503 | 30192 ft | 426 kts | 46° |
| 2026-04-26 14:23 | 29.21686 | 89.10094 | 29916 ft | 424 kts | 46° |
| 2026-04-26 14:23 | 29.23768 | 89.12662 | 29649 ft | 422 kts | 46° |
| 2026-04-26 14:24 | 29.25806 | 89.15175 | 29383 ft | 420 kts | 46° |
| 2026-04-26 14:24 | 29.27800 | 89.17635 | 29122 ft | 418 kts | 46° |
| 2026-04-26 14:24 | 29.29796 | 89.20099 | 28862 ft | 417 kts | 46° |
| 2026-04-26 14:24 | 29.31748 | 89.22511 | 28609 ft | 416 kts | 46° |
| 2026-04-26 14:25 | 29.33681 | 89.25050 | 28337 ft | 416 kts | 54° |
| 2026-04-26 14:25 | 29.35018 | 89.28086 | 28072 ft | 415 kts | 72° |
| 2026-04-26 14:25 | 29.35491 | 89.31623 | 27799 ft | 414 kts | 89° |
| 2026-04-26 14:25 | 29.35412 | 89.35167 | 27531 ft | 414 kts | 92° |
| 2026-04-26 14:26 | 29.35276 | 89.38496 | 27272 ft | 413 kts | 92° |
| 2026-04-26 14:26 | 29.35139 | 89.41875 | 27010 ft | 412 kts | 92° |
| 2026-04-26 14:26 | 29.35009 | 89.45476 | 26731 ft | 412 kts | 92° |
| 2026-04-26 14:26 | 29.34897 | 89.48862 | 26467 ft | 409 kts | 91° |
| 2026-04-26 14:27 | 29.34786 | 89.52389 | 26190 ft | 408 kts | 91° |
| 2026-04-26 14:27 | 29.34675 | 89.56076 | 25900 ft | 406 kts | 91° |
| 2026-04-26 14:27 | 29.34568 | 89.59653 | 25623 ft | 405 kts | 91° |
| 2026-04-26 14:27 | 29.34462 | 89.63205 | 25342 ft | 404 kts | 91° |
| 2026-04-26 14:28 | 29.34354 | 89.66821 | 25059 ft | 404 kts | 91° |
| 2026-04-26 14:28 | 29.34244 | 89.70445 | 24771 ft | 403 kts | 91° |
| 2026-04-26 14:28 | 29.34136 | 89.73919 | 24497 ft | 401 kts | 91° |
| 2026-04-26 14:28 | 29.34030 | 89.77375 | 24225 ft | 400 kts | 91° |
| 2026-04-26 14:29 | 29.33923 | 89.80831 | 23952 ft | 398 kts | 91° |
| 2026-04-26 14:29 | 29.33819 | 89.84171 | 23717 ft | 397 kts | 91° |
| 2026-04-26 14:29 | 29.33715 | 89.87443 | 23495 ft | 395 kts | 91° |
| 2026-04-26 14:29 | 29.33609 | 89.90771 | 23276 ft | 393 kts | 91° |
| 2026-04-26 14:30 | 29.33500 | 89.94117 | 23064 ft | 392 kts | 91° |
| 2026-04-26 14:30 | 29.33392 | 89.97477 | 22863 ft | 391 kts | 91° |
| 2026-04-26 14:30 | 29.33281 | 90.00844 | 22735 ft | 392 kts | 91° |
| 2026-04-26 14:30 | 29.33168 | 90.04185 | 22687 ft | 392 kts | 91° |
| 2026-04-26 14:31 | 29.33053 | 90.07657 | 22705 ft | 392 kts | 91° |
| 2026-04-26 14:31 | 29.32936 | 90.11177 | 22921 ft | 393 kts | 91° |
| 2026-04-26 14:31 | 29.32820 | 90.14637 | 23146 ft | 395 kts | 91° |
| 2026-04-26 14:31 | 29.32571 | 90.18085 | 23385 ft | 397 kts | 97° |
| 2026-04-26 14:32 | 29.32022 | 90.21523 | 23525 ft | 399 kts | 103° |
| 2026-04-26 14:32 | 29.31203 | 90.24840 | 23447 ft | 398 kts | 107° |
| 2026-04-26 14:32 | 29.30266 | 90.28217 | 23180 ft | 396 kts | 107° |
| 2026-04-26 14:32 | 29.29313 | 90.31612 | 22911 ft | 393 kts | 107° |
| 2026-04-26 14:33 | 29.28381 | 90.34970 | 22702 ft | 393 kts | 107° |
| 2026-04-26 14:33 | 29.27479 | 90.38251 | 22667 ft | 393 kts | 107° |
| 2026-04-26 14:33 | 29.26578 | 90.41540 | 22651 ft | 393 kts | 107° |
| 2026-04-26 14:33 | 29.25696 | 90.44760 | 22580 ft | 394 kts | 107° |
| 2026-04-26 14:34 | 29.24806 | 90.48003 | 22299 ft | 391 kts | 107° |
| 2026-04-26 14:34 | 29.23916 | 90.51237 | 22036 ft | 388 kts | 107° |
| 2026-04-26 14:34 | 29.23029 | 90.54455 | 21794 ft | 386 kts | 107° |
| 2026-04-26 14:34 | 29.22168 | 90.57576 | 21567 ft | 384 kts | 107° |
| 2026-04-26 14:35 | 29.21274 | 90.60812 | 21333 ft | 382 kts | 107° |
| 2026-04-26 14:35 | 29.20436 | 90.63847 | 21117 ft | 373 kts | 107° |
| 2026-04-26 14:35 | 29.19595 | 90.66892 | 20903 ft | 364 kts | 108° |
| 2026-04-26 14:35 | 29.18795 | 90.69789 | 20794 ft | 351 kts | 108° |
| 2026-04-26 14:36 | 29.18010 | 90.72632 | 20780 ft | 335 kts | 108° |
| 2026-04-26 14:36 | 29.17250 | 90.75372 | 20693 ft | 323 kts | 108° |
| 2026-04-26 14:36 | 29.16521 | 90.78042 | 20488 ft | 316 kts | 105° |
| 2026-04-26 14:36 | 29.16159 | 90.80708 | 20093 ft | 317 kts | 91° |
| 2026-04-26 14:37 | 29.16323 | 90.83368 | 19711 ft | 317 kts | 78° |
| 2026-04-26 14:37 | 29.16995 | 90.85951 | 19343 ft | 316 kts | 65° |
| 2026-04-26 14:37 | 29.18123 | 90.88281 | 18987 ft | 314 kts | 53° |
| 2026-04-26 14:37 | 29.19648 | 90.90257 | 18733 ft | 306 kts | 40° |
| 2026-04-26 14:38 | 29.21406 | 90.91751 | 18504 ft | 298 kts | 29° |
| 2026-04-26 14:38 | 29.23329 | 90.92790 | 18289 ft | 290 kts | 17° |
| 2026-04-26 14:38 | 29.25258 | 90.93440 | 18213 ft | 277 kts | 13° |
| 2026-04-26 14:38 | 29.27117 | 90.93981 | 18201 ft | 265 kts | 9° |
| 2026-04-26 14:39 | 29.28990 | 90.94176 | 18200 ft | 261 kts | 355° |
| 2026-04-26 14:39 | 29.30838 | 90.93826 | 18074 ft | 251 kts | 341° |
| 2026-04-26 14:39 | 29.32458 | 90.92989 | 17995 ft | 234 kts | 327° |
| 2026-04-26 14:39 | 29.33814 | 90.91770 | 17689 ft | 227 kts | 313° |
| 2026-04-26 14:40 | 29.34908 | 90.90324 | 17438 ft | 219 kts | 308° |
| 2026-04-26 14:40 | 29.35942 | 90.88846 | 17197 ft | 211 kts | 308° |
| 2026-04-26 14:40 | 29.36885 | 90.87457 | 16933 ft | 204 kts | 302° |
| 2026-04-26 14:40 | 29.37417 | 90.85867 | 16449 ft | 209 kts | 279° |
| 2026-04-26 14:41 | 29.37431 | 90.84011 | 16050 ft | 208 kts | 266° |
| 2026-04-26 14:41 | 29.37276 | 90.82254 | 15727 ft | 204 kts | 263° |
| 2026-04-26 14:41 | 29.37030 | 90.80517 | 15430 ft | 198 kts | 259° |
| 2026-04-26 14:41 | 29.36714 | 90.78889 | 15161 ft | 188 kts | 256° |
| 2026-04-26 14:42 | 29.36268 | 90.77393 | 14903 ft | 176 kts | 243° |
| 2026-04-26 14:42 | 29.35503 | 90.76221 | 14664 ft | 164 kts | 222° |
| 2026-04-26 14:42 | 29.34433 | 90.75440 | 14440 ft | 163 kts | 200° |
| 2026-04-26 14:42 | 29.33205 | 90.75148 | 14203 ft | 162 kts | 179° |
| 2026-04-26 14:43 | 29.31961 | 90.75378 | 13956 ft | 158 kts | 158° |
| 2026-04-26 14:43 | 29.30947 | 90.76019 | 13724 ft | 155 kts | 139° |
| 2026-04-26 14:43 | 29.30184 | 90.76962 | 13498 ft | 153 kts | 121° |
| 2026-04-26 14:43 | 29.29712 | 90.78155 | 13272 ft | 153 kts | 103° |
| 2026-04-26 14:44 | 29.29586 | 90.79426 | 13064 ft | 154 kts | 89° |
| 2026-04-26 14:44 | 29.29610 | 90.80702 | 12851 ft | 154 kts | 88° |
| 2026-04-26 14:44 | 29.29645 | 90.81971 | 12637 ft | 154 kts | 88° |
| 2026-04-26 14:44 | 29.29675 | 90.83222 | 12436 ft | 153 kts | 87° |
| 2026-04-26 14:45 | 29.29699 | 90.84474 | 12248 ft | 153 kts | 88° |
| 2026-04-26 14:45 | 29.29713 | 90.85302 | 12120 ft | 152 kts | 87° |
| 2026-04-26 14:45 | 29.29735 | 90.86893 | 11945 ft | 147 kts | 88° |
| 2026-04-26 14:45 | 29.29767 | 90.88080 | 11959 ft | 147 kts | 86° |
| 2026-04-26 14:46 | 29.29781 | 90.89216 | 11901 ft | 136 kts | 88° |
| 2026-04-26 14:46 | 29.29791 | 90.90060 | 11886 ft | 65 kts | 86° |
| 2026-04-26 14:46 | 29.29770 | 90.90432 | 11885 ft | 24 kts | 153° |
| 2026-04-26 14:46 | 29.29743 | 90.90372 | 11885 ft | 9 kts | 245° |
| 2026-04-26 14:47 | 29.29701 | 90.90300 | 11885 ft | 10 kts | 237° |
| 2026-04-26 14:47 | 29.29658 | 90.90221 | 11885 ft | 11 kts | 240° |
| 2026-04-26 14:47 | 29.29628 | 90.90135 | 11886 ft | 11 kts | 273° |
| 2026-04-26 14:47 | 29.29626 | 90.90054 | 11886 ft | 10 kts | 268° |
| 2026-04-26 14:48 | 29.29581 | 90.89988 | 11886 ft | 10 kts | 214° |
| 2026-04-26 14:48 | 29.29522 | 90.89941 | 11886 ft | 10 kts | 253° |
| 2026-04-26 14:48 | 29.29520 | 90.89854 | 11886 ft | 10 kts | 270° |
| 2026-04-26 14:48 | 29.29519 | 90.89761 | 11886 ft | 11 kts | 267° |
| 2026-04-26 14:49 | 29.29517 | 90.89664 | 11886 ft | 12 kts | 269° |
| 2026-04-26 14:49 | 29.29516 | 90.89563 | 11886 ft | 12 kts | 269° |
| 2026-04-26 14:49 | 29.29515 | 90.89458 | 11886 ft | 13 kts | 269° |
| 2026-04-26 14:49 | 29.29513 | 90.89344 | 11887 ft | 13 kts | 269° |
| 2026-04-26 14:50 | 29.29511 | 90.89236 | 11887 ft | 9 kts | 262° |
| 2026-04-26 14:50 | 29.29462 | 90.89213 | 11887 ft | 9 kts | 125° |
| 2026-04-26 14:50 | 29.29418 | 90.89261 | 11887 ft | 8 kts | 137° |
| 2026-04-26 14:50 | 29.29387 | 90.89292 | 11887 ft | 0 kts | 139° |